Time;durP1;ratioP1;P1;durP2;ratioP2;P2;SDS_P1;SDS_P2;PMS_P1;PMS_P2;Temp;Humidity;BMP_temperature;BMP_pressure;BME280_temperature;BME280_humidity;BME280_pressure;Samples;Min_cycle;Max_cycle;Signal;HPM_P1;HPM_P2
2023/07/01 00:01:49;;;;;;;15.38;7.75;;;26.40;76.40;;;;;;5034605;28;20510;-74
2023/07/01 00:04:14;;;;;;;14.13;6.97;;;26.40;76.30;;;;;;5034566;28;20041;-72
2023/07/01 00:06:43;;;;;;;16.23;8.20;;;26.40;76.10;;;;;;5016463;28;20045;-74
2023/07/01 00:09:10;;;;;;;14.93;7.60;;;26.40;75.80;;;;;;5034517;28;20431;-74
2023/07/01 00:11:37;;;;;;;12.75;7.80;;;26.40;76.00;;;;;;5034531;28;20448;-74
2023/07/01 00:14:03;;;;;;;11.20;6.85;;;26.30;75.90;;;;;;5034332;28;20403;-73
2023/07/01 00:16:29;;;;;;;11.10;7.28;;;26.30;75.70;;;;;;5034288;28;20029;-74
2023/07/01 00:18:54;;;;;;;11.85;7.30;;;26.30;75.80;;;;;;5034258;28;20045;-74
2023/07/01 00:21:20;;;;;;;11.82;7.25;;;26.30;75.80;;;;;;5034294;28;20076;-74
2023/07/01 00:23:46;;;;;;;15.80;7.10;;;26.20;75.70;;;;;;5016367;28;20128;-73
2023/07/01 00:26:11;;;;;;;10.65;6.75;;;26.20;75.60;;;;;;5034186;28;20029;-74
2023/07/01 00:28:37;;;;;;;12.77;7.28;;;26.10;75.40;;;;;;5034160;28;20041;-74
2023/07/01 00:31:03;;;;;;;13.48;6.95;;;26.10;75.30;;;;;;5034257;28;20029;-74
2023/07/01 00:33:29;;;;;;;16.00;7.38;;;26.00;75.20;;;;;;5033802;28;20040;-75
2023/07/01 00:35:54;;;;;;;12.68;7.10;;;26.00;75.00;;;;;;5033999;28;20083;-73
2023/07/01 00:38:20;;;;;;;13.65;7.47;;;25.90;75.30;;;;;;5034107;28;20112;-73
2023/07/01 00:40:46;;;;;;;12.20;7.65;;;25.90;75.00;;;;;;5033835;28;20456;-74
2023/07/01 00:43:11;;;;;;;11.10;7.50;;;25.90;75.10;;;;;;5037019;28;20034;-74
2023/07/01 00:45:37;;;;;;;15.20;7.25;;;25.80;74.90;;;;;;5036222;28;20075;-75
2023/07/01 00:48:03;;;;;;;12.55;6.82;;;25.80;74.80;;;;;;5033843;28;20098;-74
2023/07/01 00:50:30;;;;;;;15.48;7.00;;;25.80;74.80;;;;;;5033704;28;20037;-74
2023/07/01 00:52:56;;;;;;;10.27;6.70;;;25.80;74.60;;;;;;5033292;28;20112;-75
2023/07/01 00:55:22;;;;;;;10.73;6.78;;;25.80;74.50;;;;;;5033671;28;20038;-74
2023/07/01 00:57:47;;;;;;;11.38;6.38;;;25.80;74.30;;;;;;5033669;28;20568;-74
2023/07/01 01:00:14;;;;;;;12.90;6.78;;;25.80;73.70;;;;;;5015873;28;20036;-74
2023/07/01 01:03:00;;;;;;;12.05;6.45;;;25.80;73.80;;;;;;5033612;28;20483;-74
2023/07/01 01:05:39;;;;;;;15.50;7.05;;;25.80;73.60;;;;;;5033453;28;20030;-76
2023/07/01 01:08:11;;;;;;;13.95;7.03;;;25.80;73.50;;;;;;5033354;28;20092;-74
2023/07/01 01:10:40;;;;;;;13.82;7.32;;;25.80;73.20;;;;;;5033481;28;20483;-75
2023/07/01 01:13:06;;;;;;;11.25;7.20;;;25.80;73.30;;;;;;5033068;28;20505;-74
2023/07/01 01:15:33;;;;;;;12.15;7.28;;;25.80;73.20;;;;;;5015728;28;20040;-73
2023/07/01 01:18:05;;;;;;;14.40;7.93;;;25.80;73.20;;;;;;5015503;28;20376;-74
2023/07/01 01:20:33;;;;;;;13.30;6.65;;;25.80;73.20;;;;;;5033265;28;20038;-74
2023/07/01 01:23:05;;;;;;;12.27;7.03;;;25.90;73.10;;;;;;5033203;28;20513;-74
2023/07/01 01:25:37;;;;;;;15.53;6.60;;;25.90;72.80;;;;;;5033477;28;20037;-74
2023/07/01 01:28:04;;;;;;;14.35;6.68;;;25.90;72.60;;;;;;5033137;28;20295;-75
2023/07/01 01:30:33;;;;;;;13.85;7.25;;;25.80;72.90;;;;;;5015440;28;20048;-74
2023/07/01 01:33:00;;;;;;;11.15;6.65;;;25.80;72.80;;;;;;5032982;28;20076;-76
2023/07/01 01:35:25;;;;;;;13.38;7.13;;;25.80;72.90;;;;;;5033065;28;20087;-73
2023/07/01 01:38:03;;;;;;;11.07;6.13;;;25.80;72.80;;;;;;5032925;28;20030;-74
2023/07/01 01:41:04;;;;;;;16.65;7.32;;;25.70;72.70;;;;;;5032908;28;20103;-74
2023/07/01 01:43:37;;;;;;;12.00;6.53;;;25.70;72.50;;;;;;5015524;28;20061;-74
2023/07/01 01:46:05;;;;;;;12.80;6.85;;;25.70;72.60;;;;;;5032517;28;20052;-75
2023/07/01 01:48:31;;;;;;;15.30;6.90;;;25.60;73.10;;;;;;5032584;28;20045;-74
2023/07/01 01:50:58;;;;;;;14.68;7.05;;;25.60;73.10;;;;;;5032685;28;20036;-75
2023/07/01 01:53:26;;;;;;;14.68;7.30;;;25.60;73.00;;;;;;5032674;28;20056;-75
2023/07/01 01:55:52;;;;;;;18.63;7.15;;;25.50;73.30;;;;;;5032790;28;20033;-75
2023/07/01 01:58:18;;;;;;;16.05;6.55;;;25.50;73.60;;;;;;5032578;28;20551;-72
2023/07/01 02:00:45;;;;;;;14.48;7.20;;;25.50;73.40;;;;;;5014788;28;20123;-74
2023/07/01 02:03:11;;;;;;;15.30;6.95;;;25.60;73.20;;;;;;5033290;28;20483;-75
2023/07/01 02:05:37;;;;;;;12.02;6.85;;;25.50;73.70;;;;;;5031984;28;20033;-74
2023/07/01 02:08:04;;;;;;;13.07;6.38;;;25.50;73.70;;;;;;5032806;28;20046;-76
2023/07/01 02:10:31;;;;;;;13.73;6.75;;;25.50;73.70;;;;;;5032446;28;20043;-75
2023/07/01 02:12:56;;;;;;;12.10;7.07;;;25.60;74.00;;;;;;5014577;28;20379;-75
2023/07/01 02:15:22;;;;;;;13.30;6.57;;;25.50;73.60;;;;;;5014524;28;20040;-75
2023/07/01 02:17:48;;;;;;;11.50;7.65;;;25.50;73.70;;;;;;5032484;28;20433;-74
2023/07/01 02:20:14;;;;;;;12.82;6.65;;;25.50;73.70;;;;;;5032305;28;20116;-73
2023/07/01 02:22:39;;;;;;;13.80;6.35;;;25.40;73.80;;;;;;5032305;28;20032;-73
2023/07/01 02:25:06;;;;;;;12.20;6.75;;;25.50;73.90;;;;;;5032295;28;20119;-74
2023/07/01 02:27:32;;;;;;;12.60;7.00;;;25.40;73.70;;;;;;5032110;28;20049;-75
2023/07/01 02:29:58;;;;;;;14.43;6.78;;;25.50;74.00;;;;;;5032328;28;20041;-74
2023/07/01 02:32:24;;;;;;;14.05;7.07;;;25.40;74.00;;;;;;5032116;28;20091;-74
2023/07/01 02:34:51;;;;;;;15.45;6.95;;;25.40;74.20;;;;;;5031858;28;20037;-73
2023/07/01 02:37:16;;;;;;;13.73;7.07;;;25.30;73.70;;;;;;5014380;28;20045;-75
2023/07/01 02:39:44;;;;;;;13.93;7.05;;;25.30;73.80;;;;;;5032509;28;20032;-74
2023/07/01 02:42:10;;;;;;;11.95;7.07;;;25.40;74.00;;;;;;5032422;28;20117;-74
2023/07/01 02:44:36;;;;;;;11.88;6.47;;;25.30;73.70;;;;;;5014983;28;20128;-74
2023/07/01 02:47:02;;;;;;;13.50;7.38;;;25.30;73.90;;;;;;5033580;28;20092;-74
2023/07/01 02:49:27;;;;;;;15.63;6.85;;;25.30;74.10;;;;;;5031717;28;20029;-74
2023/07/01 02:51:53;;;;;;;14.32;7.45;;;25.30;74.00;;;;;;5031726;28;20487;-74
2023/07/01 02:54:19;;;;;;;14.70;7.28;;;25.30;74.10;;;;;;5031922;28;20025;-74
2023/07/01 02:56:44;;;;;;;14.10;7.25;;;25.30;74.50;;;;;;5031910;28;20479;-75
2023/07/01 02:59:11;;;;;;;15.90;8.05;;;25.30;74.10;;;;;;5031880;28;20025;-74
2023/07/01 03:01:37;;;;;;;13.10;7.05;;;25.30;74.30;;;;;;5031484;28;20055;-74
2023/07/01 03:04:06;;;;;;;20.65;7.28;;;25.30;74.40;;;;;;5031872;28;20112;-74
2023/07/01 03:06:31;;;;;;;13.02;7.05;;;25.20;74.80;;;;;;5031749;28;20399;-72
2023/07/01 03:08:57;;;;;;;14.65;6.88;;;25.30;74.50;;;;;;5031693;28;20029;-74
2023/07/01 03:11:23;;;;;;;15.02;7.47;;;25.30;74.90;;;;;;5031815;28;20065;-73
2023/07/01 03:13:51;;;;;;;13.05;6.75;;;25.30;74.70;;;;;;5031573;28;20498;-76
2023/07/01 03:16:17;;;;;;;15.45;7.80;;;25.30;74.40;;;;;;5033657;28;20108;-73
2023/07/01 03:18:42;;;;;;;15.90;7.82;;;25.30;74.30;;;;;;5035230;28;20068;-73
2023/07/01 03:21:08;;;;;;;11.65;6.90;;;25.30;74.40;;;;;;5035391;28;20084;-74
2023/07/01 03:23:34;;;;;;;16.67;7.80;;;25.30;74.50;;;;;;5035282;28;20033;-74
2023/07/01 03:26:00;;;;;;;15.25;7.05;;;25.30;74.90;;;;;;5034939;28;20104;-74
2023/07/01 03:28:26;;;;;;;15.80;7.97;;;25.30;74.70;;;;;;5035244;28;20050;-74
2023/07/01 03:30:51;;;;;;;22.13;8.40;;;25.30;74.60;;;;;;5035187;28;20033;-74
2023/07/01 03:33:17;;;;;;;13.82;8.02;;;25.30;74.40;;;;;;5035170;28;20040;-73
2023/07/01 03:35:44;;;;;;;17.05;8.13;;;25.20;74.40;;;;;;5034901;28;20406;-74
2023/07/01 03:38:09;;;;;;;15.20;7.50;;;25.20;74.20;;;;;;5035095;28;20396;-75
2023/07/01 03:40:35;;;;;;;14.93;7.50;;;25.20;74.30;;;;;;5016745;28;20041;-73
2023/07/01 03:43:01;;;;;;;14.65;7.93;;;25.20;74.30;;;;;;5034880;28;20040;-74
2023/07/01 03:45:26;;;;;;;13.88;7.80;;;25.10;74.20;;;;;;5034715;28;20046;-74
2023/07/01 03:47:52;;;;;;;16.05;7.50;;;25.10;74.20;;;;;;5016953;28;20128;-75
2023/07/01 03:50:18;;;;;;;23.33;7.28;;;25.10;74.30;;;;;;5034675;28;20056;-74
2023/07/01 03:52:43;;;;;;;16.70;7.30;;;25.10;74.60;;;;;;5034516;28;20099;-73
2023/07/01 03:55:11;;;;;;;13.95;7.85;;;25.10;75.30;;;;;;5034666;28;20381;-74
2023/07/01 03:57:37;;;;;;;14.20;7.32;;;25.10;74.30;;;;;;5034488;28;20029;-75
2023/07/01 04:00:17;;;;;;;17.88;8.10;;;25.10;74.50;;;;;;5034610;28;20091;-73
2023/07/01 04:02:45;;;;;;;17.17;8.20;;;25.10;74.20;;;;;;5016554;28;20033;-74
2023/07/01 04:05:11;;;;;;;17.08;7.65;;;25.10;74.30;;;;;;5034471;28;20022;-73
2023/07/01 04:07:41;;;;;;;18.95;8.10;;;25.20;74.10;;;;;;5034276;28;20127;-73
2023/07/01 04:10:08;;;;;;;19.55;8.15;;;25.20;74.00;;;;;;5034479;28;20029;-74
2023/07/01 04:12:35;;;;;;;17.25;8.02;;;25.20;74.00;;;;;;5034659;28;20121;-73
2023/07/01 04:15:01;;;;;;;16.60;7.68;;;25.20;74.10;;;;;;5035465;28;20123;-74
2023/07/01 04:17:29;;;;;;;14.98;8.02;;;25.20;73.90;;;;;;5035037;28;20064;-75
2023/07/01 04:19:56;;;;;;;22.42;7.75;;;25.30;73.80;;;;;;5016457;28;20041;-75
2023/07/01 04:22:23;;;;;;;17.05;8.07;;;25.30;74.00;;;;;;5034191;28;20029;-73
2023/07/01 04:24:49;;;;;;;14.77;7.85;;;25.30;73.70;;;;;;5033972;28;20112;-74
2023/07/01 04:27:15;;;;;;;15.70;8.43;;;25.20;74.00;;;;;;5033560;28;20179;-74
2023/07/01 04:29:40;;;;;;;14.75;7.38;;;25.30;73.80;;;;;;5033989;28;20129;-75
2023/07/01 04:32:07;;;;;;;14.95;7.60;;;25.30;73.70;;;;;;5034076;28;20049;-73
2023/07/01 04:34:32;;;;;;;14.95;7.60;;;25.30;74.40;;;;;;5033828;28;20022;-72
2023/07/01 04:36:58;;;;;;;15.32;7.22;;;25.30;73.60;;;;;;5033942;28;20037;-74
2023/07/01 04:39:24;;;;;;;16.55;7.80;;;25.40;73.60;;;;;;5033895;28;20037;-73
2023/07/01 04:41:50;;;;;;;14.88;7.63;;;25.40;73.20;;;;;;5016121;28;20036;-72
2023/07/01 04:44:16;;;;;;;19.15;8.40;;;25.50;73.00;;;;;;5034648;28;20103;-73
2023/07/01 04:46:41;;;;;;;17.52;8.38;;;25.50;72.90;;;;;;5034798;28;20433;-74
2023/07/01 04:49:10;;;;;;;13.13;7.38;;;25.60;72.90;;;;;;5017956;28;20052;-71
2023/07/01 04:51:36;;;;;;;15.15;7.68;;;25.60;73.00;;;;;;5034064;28;20121;-73
2023/07/01 04:54:04;;;;;;;16.48;7.78;;;25.70;73.30;;;;;;5033607;28;20446;-73
2023/07/01 04:56:30;;;;;;;18.25;8.63;;;25.70;72.60;;;;;;5033553;28;20450;-73
2023/07/01 04:58:56;;;;;;;18.00;8.68;;;25.80;72.70;;;;;;5033496;28;20078;-73
2023/07/01 05:01:21;;;;;;;16.13;7.68;;;25.80;72.70;;;;;;5033317;28;20083;-73
2023/07/01 05:03:47;;;;;;;17.10;8.10;;;25.90;72.70;;;;;;5033151;28;20471;-73
2023/07/01 05:06:13;;;;;;;20.63;7.88;;;25.90;72.60;;;;;;5033345;28;20037;-74
2023/07/01 05:08:38;;;;;;;17.98;7.97;;;25.90;72.60;;;;;;5033221;28;20048;-74
2023/07/01 05:11:04;;;;;;;16.80;7.55;;;25.90;72.30;;;;;;5033149;28;20030;-74
2023/07/01 05:13:30;;;;;;;20.55;9.48;;;25.90;72.30;;;;;;5032877;28;20042;-74
2023/07/01 05:15:55;;;;;;;16.88;7.47;;;26.00;72.30;;;;;;5033200;28;20029;-74
2023/07/01 05:18:21;;;;;;;18.50;8.82;;;25.90;72.50;;;;;;5033128;28;20072;-72
2023/07/01 05:20:47;;;;;;;16.40;7.70;;;25.90;72.10;;;;;;5033211;28;20068;-74
2023/07/01 05:23:13;;;;;;;17.42;8.90;;;25.90;72.50;;;;;;5016698;28;20061;-74
2023/07/01 05:25:38;;;;;;;19.45;8.48;;;25.90;72.50;;;;;;5033007;28;20395;-75
2023/07/01 05:28:04;;;;;;;19.35;8.40;;;25.80;73.10;;;;;;5032891;28;20065;-74
2023/07/01 05:30:30;;;;;;;19.55;8.63;;;25.70;73.50;;;;;;5015096;28;20060;-74
2023/07/01 05:32:55;;;;;;;15.52;7.57;;;25.70;73.50;;;;;;5032898;28;20041;-75
2023/07/01 05:35:21;;;;;;;16.67;6.90;;;25.70;73.60;;;;;;5032898;28;20040;-75
2023/07/01 05:37:47;;;;;;;16.20;7.95;;;25.70;73.70;;;;;;5033171;28;20037;-75
2023/07/01 05:40:12;;;;;;;16.27;7.72;;;25.70;73.60;;;;;;5032456;28;20397;-75
2023/07/01 05:42:38;;;;;;;17.02;8.05;;;25.70;73.80;;;;;;5032908;28;20344;-74
2023/07/01 05:45:05;;;;;;;18.38;8.35;;;25.70;73.80;;;;;;5032560;28;20111;-73
2023/07/01 05:47:31;;;;;;;20.45;7.88;;;25.70;73.60;;;;;;5032451;28;20048;-74
2023/07/01 05:49:57;;;;;;;18.52;7.65;;;25.70;73.40;;;;;;5032846;28;20049;-73
2023/07/01 05:52:23;;;;;;;17.15;7.03;;;25.70;73.70;;;;;;5032633;28;20092;-75
2023/07/01 05:54:49;;;;;;;18.75;7.75;;;25.70;73.90;;;;;;5032445;28;20049;-74
2023/07/01 05:57:15;;;;;;;15.75;7.65;;;25.60;73.40;;;;;;5032609;28;20041;-75
2023/07/01 05:59:41;;;;;;;17.48;7.82;;;25.60;73.50;;;;;;5032310;28;20063;-74
2023/07/01 06:02:07;;;;;;;17.08;7.40;;;25.70;73.60;;;;;;5032418;28;20030;-74
2023/07/01 06:04:33;;;;;;;16.40;7.43;;;25.70;73.60;;;;;;5032524;28;20029;-74
2023/07/01 06:06:59;;;;;;;15.65;7.00;;;25.80;73.50;;;;;;5032371;28;20114;-74
2023/07/01 06:09:25;;;;;;;18.30;7.30;;;25.80;73.30;;;;;;5032315;28;20479;-76
2023/07/01 06:11:50;;;;;;;19.75;8.13;;;25.80;74.20;;;;;;5014309;28;20119;-74
2023/07/01 06:14:16;;;;;;;23.02;8.45;;;25.70;74.70;;;;;;5032168;28;20038;-75
2023/07/01 06:16:42;;;;;;;21.25;8.10;;;25.70;75.80;;;;;;5032126;28;20033;-74
2023/07/01 06:19:08;;;;;;;22.02;8.45;;;25.60;76.20;;;;;;5014366;28;20037;-73
2023/07/01 06:21:33;;;;;;;19.05;8.05;;;25.40;76.40;;;;;;5032107;28;20382;-73
2023/07/01 06:23:59;;;;;;;19.48;8.45;;;25.40;76.70;;;;;;5032014;28;20132;-75
2023/07/01 06:26:25;;;;;;;20.85;8.25;;;25.30;77.20;;;;;;5032075;28;20025;-74
2023/07/01 06:28:50;;;;;;;23.92;7.88;;;25.40;77.70;;;;;;5032243;28;20122;-75
2023/07/01 06:31:16;;;;;;;21.25;8.80;;;25.30;77.60;;;;;;5033149;28;20049;-74
2023/07/01 06:33:43;;;;;;;18.42;8.20;;;25.30;77.70;;;;;;5031860;28;20048;-75
2023/07/01 06:36:09;;;;;;;20.20;8.45;;;25.30;77.90;;;;;;5032020;28;20510;-74
2023/07/01 06:38:34;;;;;;;17.35;8.20;;;25.30;78.40;;;;;;5031887;28;20036;-75
2023/07/01 06:41:00;;;;;;;17.88;8.20;;;25.20;78.80;;;;;;5032070;28;20391;-73
2023/07/01 06:43:26;;;;;;;18.55;7.95;;;25.20;78.80;;;;;;5031782;28;20487;-75
2023/07/01 06:45:51;;;;;;;18.95;8.20;;;25.20;78.60;;;;;;5031735;28;20040;-74
2023/07/01 06:48:17;;;;;;;17.77;7.85;;;25.20;78.60;;;;;;5031601;28;20404;-74
2023/07/01 06:50:43;;;;;;;18.55;8.10;;;25.30;78.90;;;;;;5033181;28;20026;-76
2023/07/01 06:53:08;;;;;;;21.95;7.93;;;25.30;78.60;;;;;;5035810;28;20042;-74
2023/07/01 06:55:34;;;;;;;20.40;7.57;;;25.30;78.40;;;;;;5035878;28;20039;-75
2023/07/01 06:58:02;;;;;;;14.60;8.02;;;25.40;78.20;;;;;;5035688;28;20048;-75
2023/07/01 07:00:29;;;;;;;20.85;8.13;;;25.40;78.00;;;;;;5035684;28;20088;-75
2023/07/01 07:02:55;;;;;;;17.50;7.88;;;25.40;78.00;;;;;;5036185;28;20087;-75
2023/07/01 07:05:20;;;;;;;21.27;8.02;;;25.40;77.90;;;;;;5035764;28;20065;-75
2023/07/01 07:07:46;;;;;;;18.27;7.85;;;25.40;78.10;;;;;;5035612;28;20084;-75
2023/07/01 07:10:12;;;;;;;18.70;7.85;;;25.40;78.30;;;;;;5035536;28;20467;-75
2023/07/01 07:12:38;;;;;;;15.73;7.68;;;25.40;78.60;;;;;;5035445;28;20087;-74
2023/07/01 07:15:04;;;;;;;13.55;7.05;;;25.50;78.40;;;;;;5035335;28;20057;-73
2023/07/01 07:17:30;;;;;;;15.70;7.10;;;25.40;78.50;;;;;;5035236;28;20438;-74
2023/07/01 07:19:56;;;;;;;20.17;7.65;;;25.50;78.30;;;;;;5035194;28;20044;-75
2023/07/01 07:22:22;;;;;;;18.23;7.72;;;25.50;78.20;;;;;;5035294;28;20040;-74
2023/07/01 07:24:47;;;;;;;18.13;7.60;;;25.50;78.00;;;;;;5035304;28;20104;-74
2023/07/01 07:27:13;;;;;;;18.35;6.70;;;25.60;78.00;;;;;;5035172;28;20049;-74
2023/07/01 07:29:39;;;;;;;14.90;6.65;;;25.60;77.80;;;;;;5034890;28;20037;-75
2023/07/01 07:32:05;;;;;;;19.38;6.97;;;25.60;77.60;;;;;;5035200;28;20030;-74
2023/07/01 07:34:31;;;;;;;18.58;7.25;;;25.60;77.90;;;;;;5034902;28;20495;-73
2023/07/01 07:36:57;;;;;;;18.48;7.07;;;25.60;78.00;;;;;;5035036;28;20032;-75
2023/07/01 07:39:23;;;;;;;22.52;7.47;;;25.50;78.10;;;;;;5034979;28;20038;-74
2023/07/01 07:41:49;;;;;;;17.13;7.45;;;25.50;78.50;;;;;;5034759;28;20029;-74
2023/07/01 07:44:15;;;;;;;16.80;7.85;;;25.50;78.50;;;;;;5034589;28;20053;-74
2023/07/01 07:46:42;;;;;;;18.92;7.75;;;25.50;78.60;;;;;;5034653;28;20030;-75
2023/07/01 07:49:08;;;;;;;21.75;8.43;;;25.50;78.80;;;;;;5034566;28;20033;-74
2023/07/01 07:51:34;;;;;;;20.45;8.52;;;25.50;78.70;;;;;;5034591;28;20034;-73
2023/07/01 07:53:59;;;;;;;16.80;8.35;;;25.50;79.00;;;;;;5034741;28;20045;-75
2023/07/01 07:56:25;;;;;;;21.17;8.38;;;25.50;79.20;;;;;;5034543;28;20040;-74
2023/07/01 07:58:51;;;;;;;22.90;8.40;;;25.50;79.30;;;;;;5034395;28;20072;-74
2023/07/01 08:01:17;;;;;;;19.15;8.50;;;25.70;79.20;;;;;;5034371;28;20395;-75
2023/07/01 08:03:43;;;;;;;20.80;7.85;;;25.80;78.90;;;;;;5033676;28;20040;-75
2023/07/01 08:06:09;;;;;;;17.15;7.68;;;25.90;78.90;;;;;;5034566;28;20083;-74
2023/07/01 08:08:37;;;;;;;22.90;7.28;;;26.10;78.40;;;;;;5034398;28;20045;-75
2023/07/01 08:11:03;;;;;;;12.88;6.38;;;26.40;77.60;;;;;;5016519;28;20124;-75
2023/07/01 08:13:29;;;;;;;21.88;7.93;;;26.80;76.90;;;;;;5034192;28;20117;-74
2023/07/01 08:15:54;;;;;;;16.10;6.93;;;27.10;76.10;;;;;;5034137;28;20037;-74
2023/07/01 08:18:20;;;;;;;16.08;6.43;;;27.40;75.40;;;;;;5033991;28;20041;-75
2023/07/01 08:20:46;;;;;;;19.83;6.90;;;27.60;74.20;;;;;;5034117;28;20030;-75
2023/07/01 08:23:13;;;;;;;18.58;6.82;;;28.00;73.60;;;;;;5034161;28;20112;-69
2023/07/01 08:25:40;;;;;;;21.40;7.05;;;28.20;73.20;;;;;;5034313;28;20037;-75
2023/07/01 08:28:06;;;;;;;15.57;6.38;;;28.40;73.10;;;;;;5033787;28;20060;-76
2023/07/01 08:30:32;;;;;;;18.20;6.35;;;28.40;72.00;;;;;;5034001;28;20030;-75
2023/07/01 08:32:57;;;;;;;15.93;6.38;;;28.50;71.30;;;;;;5033878;28;20557;-75
2023/07/01 08:35:23;;;;;;;18.88;6.43;;;28.50;70.70;;;;;;5033774;28;20497;-75
2023/07/01 08:37:49;;;;;;;20.65;5.90;;;28.50;70.50;;;;;;5033841;28;20057;-75
2023/07/01 08:40:15;;;;;;;14.93;5.65;;;28.50;70.00;;;;;;5033715;28;20400;-76
2023/07/01 08:43:02;;;;;;;19.40;5.72;;;28.50;69.90;;;;;;5033474;28;20160;-75
2023/07/01 08:45:30;;;;;;;15.32;5.55;;;28.50;69.80;;;;;;5015919;28;20069;-75
2023/07/01 08:47:58;;;;;;;21.30;6.25;;;28.60;69.80;;;;;;5033641;28;20052;-76
2023/07/01 08:50:30;;;;;;;17.83;6.40;;;28.60;69.30;;;;;;5033670;28;20039;-75
2023/07/01 08:53:06;;;;;;;17.83;5.73;;;28.60;68.90;;;;;;5015619;28;20036;-74
2023/07/01 08:55:33;;;;;;;13.82;5.32;;;28.60;68.50;;;;;;5033968;28;20117;-75
2023/07/01 08:58:00;;;;;;;16.13;5.78;;;28.60;68.10;;;;;;5033443;28;20450;-75
2023/07/01 09:00:26;;;;;;;15.27;5.68;;;28.60;67.70;;;;;;5033242;28;20772;-75
2023/07/01 09:02:52;;;;;;;19.30;6.05;;;28.60;67.70;;;;;;5033042;28;20487;-74
2023/07/01 09:05:18;;;;;;;17.33;5.45;;;28.60;67.30;;;;;;5033256;28;20438;-76
2023/07/01 09:07:44;;;;;;;17.85;4.95;;;28.60;67.20;;;;;;5033038;28;20115;-74
2023/07/01 09:10:11;;;;;;;17.88;5.88;;;28.60;67.40;;;;;;5033257;28;20034;-75
2023/07/01 09:12:37;;;;;;;19.15;5.82;;;28.70;66.90;;;;;;5033068;28;20107;-75
2023/07/01 09:15:05;;;;;;;13.52;5.32;;;28.60;66.60;;;;;;5033045;28;20498;-75
2023/07/01 09:17:36;;;;;;;15.50;5.30;;;28.70;66.30;;;;;;5033131;28;20103;-77
2023/07/01 09:20:05;;;;;;;18.35;5.18;;;28.70;66.20;;;;;;5032846;28;20026;-75
2023/07/01 09:22:32;;;;;;;16.83;5.50;;;28.60;65.90;;;;;;5032667;28;20046;-74
2023/07/01 09:24:58;;;;;;;16.75;4.93;;;28.60;65.50;;;;;;5032822;28;20065;-78
2023/07/01 09:27:24;;;;;;;17.00;5.57;;;28.60;65.70;;;;;;5032603;28;20094;-75
2023/07/01 09:29:52;;;;;;;15.45;5.30;;;28.60;65.40;;;;;;5032720;28;20037;-74
2023/07/01 09:32:32;;;;;;;14.05;5.28;;;28.60;65.20;;;;;;5032597;28;20382;-75
2023/07/01 09:34:58;;;;;;;15.55;4.97;;;28.60;64.90;;;;;;5033171;28;20035;-75
2023/07/01 09:37:27;;;;;;;14.10;5.07;;;28.60;64.60;;;;;;5032488;28;20041;-76
2023/07/01 09:39:53;;;;;;;14.27;5.15;;;28.60;64.50;;;;;;5032534;28;20029;-77
2023/07/01 09:42:19;;;;;;;15.68;5.22;;;28.60;64.50;;;;;;5032662;28;20513;-75
2023/07/01 09:45:17;;;;;;;16.83;5.30;;;28.50;64.90;;;;;;5032326;28;20059;-75
2023/07/01 09:47:42;;;;;;;15.98;5.35;;;28.50;65.20;;;;;;4999010;28;20041;-76
2023/07/01 09:50:19;;;;;;;14.63;5.03;;;28.50;65.20;;;;;;5032380;28;20044;-75
2023/07/01 09:52:45;;;;;;;16.95;5.50;;;28.40;65.20;;;;;;5032438;28;20037;-74
2023/07/01 09:55:11;;;;;;;15.88;5.60;;;28.30;65.50;;;;;;5014689;28;20041;-75
2023/07/01 09:57:38;;;;;;;14.07;4.50;;;28.20;65.60;;;;;;5032077;28;20029;-75
2023/07/01 10:00:06;;;;;;;14.35;4.78;;;28.20;65.80;;;;;;5032121;28;20464;-76
2023/07/01 10:02:32;;;;;;;13.65;5.20;;;28.20;65.50;;;;;;5031999;28;20033;-77
2023/07/01 10:05:00;;;;;;;18.30;5.35;;;28.30;64.70;;;;;;5032583;28;20033;-75
2023/07/01 10:07:26;;;;;;;22.25;5.22;;;28.40;64.70;;;;;;5031982;28;20046;-75
2023/07/01 10:09:52;;;;;;;13.75;5.20;;;28.40;64.10;;;;;;5032130;28;20088;-75
2023/07/01 10:12:20;;;;;;;14.23;5.25;;;28.50;63.10;;;;;;5032074;28;20112;-75
2023/07/01 10:14:50;;;;;;;12.63;5.10;;;28.60;62.90;;;;;;5031956;28;20119;-75
2023/07/01 10:17:19;;;;;;;13.63;5.22;;;28.60;62.60;;;;;;5031727;28;20041;-75
2023/07/01 10:19:46;;;;;;;17.48;4.75;;;28.70;62.10;;;;;;5032115;28;20029;-76
2023/07/01 10:22:29;;;;;;;15.73;4.75;;;28.80;62.20;;;;;;5014039;28;20068;-76
2023/07/01 10:24:57;;;;;;;17.90;4.60;;;28.90;62.20;;;;;;5032784;28;20124;-74
2023/07/01 10:27:43;;;;;;;14.20;4.57;;;28.90;61.50;;;;;;5038605;28;20076;-76
2023/07/01 10:30:12;;;;;;;13.43;5.40;;;28.90;62.20;;;;;;5038543;28;20047;-75
2023/07/01 10:32:39;;;;;;;14.98;4.80;;;28.90;62.00;;;;;;5038001;28;20042;-76
2023/07/01 10:35:04;;;;;;;15.57;5.25;;;28.90;61.80;;;;;;5038135;28;20041;-76
2023/07/01 10:37:33;;;;;;;18.92;5.15;;;28.90;61.40;;;;;;5020474;28;20567;-76
2023/07/01 10:40:00;;;;;;;18.48;4.75;;;28.90;61.70;;;;;;5020529;28;20040;-76
2023/07/01 10:42:33;;;;;;;14.25;4.30;;;28.80;61.70;;;;;;5038252;28;20091;-75
2023/07/01 10:45:12;;;;;;;12.98;4.20;;;28.80;61.50;;;;;;5037708;28;20049;-74
2023/07/01 10:47:46;;;;;;;15.95;6.22;;;28.90;61.20;;;;;;5037884;28;20060;-77
2023/07/01 10:50:14;;;;;;;11.18;4.35;;;29.00;60.70;;;;;;5038552;28;20111;-76
2023/07/01 10:53:04;;;;;;;15.30;5.13;;;29.00;60.30;;;;;;5038316;28;20099;-76
2023/07/01 10:55:36;;;;;;;15.57;5.47;;;29.00;60.40;;;;;;5038330;28;20038;-76
2023/07/01 10:58:17;;;;;;;12.57;4.25;;;29.00;60.30;;;;;;5038001;28;20526;-75
2023/07/01 11:00:43;;;;;;;14.70;5.05;;;29.10;60.60;;;;;;5038123;28;20064;-75
2023/07/01 11:03:34;;;;;;;16.50;4.95;;;29.00;60.40;;;;;;5038213;28;20029;-75
2023/07/01 11:06:07;;;;;;;12.00;4.53;;;28.90;60.90;;;;;;5029266;28;20510;-75
2023/07/01 11:08:43;;;;;;;19.23;4.55;;;28.90;61.30;;;;;;5038283;28;20061;-74
2023/07/01 11:11:09;;;;;;;13.13;4.35;;;28.90;61.40;;;;;;5038054;28;20033;-75
2023/07/01 11:13:35;;;;;;;15.57;4.72;;;28.80;61.40;;;;;;5038238;28;20104;-76
2023/07/01 11:16:01;;;;;;;15.57;4.75;;;28.80;61.20;;;;;;5038204;28;20364;-76
2023/07/01 11:18:43;;;;;;;14.20;4.93;;;28.80;61.60;;;;;;5038200;28;20087;-75
2023/07/01 11:21:10;;;;;;;10.80;4.28;;;28.70;61.70;;;;;;5038362;28;20043;-75
2023/07/01 11:23:57;;;;;;;17.33;5.07;;;28.70;61.70;;;;;;5038212;28;20092;-75
2023/07/01 11:26:33;;;;;;;10.80;4.50;;;28.70;62.30;;;;;;5037570;28;20049;-75
2023/07/01 11:28:59;;;;;;;12.38;4.57;;;28.70;61.80;;;;;;5038405;28;20040;-77
2023/07/01 11:31:29;;;;;;;14.63;4.60;;;28.60;61.60;;;;;;5038113;28;20034;-75
2023/07/01 11:33:56;;;;;;;14.98;4.60;;;28.60;61.60;;;;;;5038179;28;20438;-77
2023/07/01 11:36:36;;;;;;;14.05;4.25;;;28.60;61.80;;;;;;5037744;28;20049;-75
2023/07/01 11:39:06;;;;;;;13.63;4.78;;;28.60;62.10;;;;;;5035025;28;20036;-76
2023/07/01 11:41:33;;;;;;;14.90;4.78;;;28.70;61.30;;;;;;5035230;28;20060;-75
2023/07/01 11:43:58;;;;;;;16.08;5.13;;;28.70;61.10;;;;;;5034725;28;20049;-74
2023/07/01 11:46:35;;;;;;;13.38;4.95;;;28.70;61.50;;;;;;5035066;28;20064;-75
2023/07/01 11:49:13;;;;;;;13.73;5.00;;;28.90;60.80;;;;;;5035092;28;20049;-75
2023/07/01 11:51:40;;;;;;;10.70;4.40;;;28.90;60.80;;;;;;5034899;28;20059;-75
2023/07/01 11:54:06;;;;;;;15.20;4.97;;;28.90;60.70;;;;;;5034972;28;20117;-75
2023/07/01 11:56:31;;;;;;;13.32;4.70;;;28.80;59.90;;;;;;5034870;28;20109;-77
2023/07/01 11:58:57;;;;;;;14.13;4.68;;;28.90;60.00;;;;;;5034795;28;20026;-76
2023/07/01 12:01:24;;;;;;;15.05;5.32;;;28.80;60.40;;;;;;5034538;28;20403;-75
2023/07/01 12:03:53;;;;;;;11.07;4.40;;;28.80;60.40;;;;;;5017057;28;20390;-78
2023/07/01 12:06:23;;;;;;;14.77;5.35;;;28.70;60.90;;;;;;5034701;28;20069;-75
2023/07/01 12:08:55;;;;;;;16.77;5.35;;;28.70;61.00;;;;;;5034278;28;20049;-74
2023/07/01 12:11:22;;;;;;;11.35;4.05;;;28.60;60.90;;;;;;5034448;28;20101;-75
2023/07/01 12:13:49;;;;;;;13.63;4.85;;;28.70;61.00;;;;;;5016981;28;20044;-74
2023/07/01 12:16:15;;;;;;;12.80;4.22;;;28.70;61.10;;;;;;5034554;28;20155;-75
2023/07/01 12:18:41;;;;;;;11.80;3.90;;;28.60;61.20;;;;;;5016629;28;20373;-75
2023/07/01 12:21:07;;;;;;;13.30;4.50;;;28.60;61.20;;;;;;5034182;28;20127;-76
2023/07/01 12:23:43;;;;;;;15.85;4.45;;;28.50;61.30;;;;;;5034361;28;20037;-75
2023/07/01 12:26:12;;;;;;;14.52;4.97;;;28.50;61.90;;;;;;5034246;28;20108;-76
2023/07/01 12:28:41;;;;;;;11.63;4.97;;;28.40;62.40;;;;;;5034223;28;20052;-76
2023/07/01 12:31:07;;;;;;;12.48;4.88;;;28.20;63.80;;;;;;5034181;28;20036;-75
2023/07/01 12:33:34;;;;;;;14.65;5.25;;;28.00;65.10;;;;;;5033967;28;20056;-76
2023/07/01 12:36:00;;;;;;;15.20;5.57;;;27.80;65.60;;;;;;5033994;28;20518;-75
2023/07/01 12:38:26;;;;;;;13.13;4.93;;;27.60;66.40;;;;;;5033961;28;20038;-75